NSV weather

Noosa Airport
Queensland, Australia

Public forecast

Using degrees Celsius for public forecast. Weather courtesy of forecast.io.

METAR (pilot weather report)

Closest report is Brisbane International Airport, 57.8 nm (107.0 km) S. Retrieved 2019/02/16 19:00 UTC (9 minutes ago):

YBBN 161900Z 21008KT CAVOK 19/15 Q1013 NOSIG

TAF (pilot weather forecast)

Closest forecast is Brisbane International Airport, 57.8 nm (107.0 km) S. Retrieved 2019/02/16 18:37 UTC (32 minutes ago):

TAF YBBN 161724Z 1618/1724 20008KT 9999 FEW030 FM162300 14011KT 9999 FEW040 FM170100 11013KT 9999 SCT045 FM170900 13010KT 9999 SCT040 FM171200 19007KT 9999 SCT035 FM172300 15010KT 9999 FEW040